Aérodrome :
LOGIN :

S'inscrire | Disclaimer

   EN    FR    IT 

 










Légende :    VFR   VFR Marginal   IFR   IFR Intensif   IFR Très Intensif
Visi : 
Plafond : 
>= 8 km
>= 3000ft
5 à 8 km
1000 à 3000 ft
1500m à 5 km
500 à 1000 ft
800 à 1500m
200 à 500 ft
< 800m
< 200 ft
Symboles :   Orages  Brouillard  Fortes neiges  Fortes précipitations  Vent > 20 kt
SIGMETs :   Divers  Orages  Givrage  Turbulence  Onde Orograph.  Cendres Volcan.







- Altitude de l'aérodrome : 1416 ft
- Code IATA : ZRH


LSZH - Zurich

DERNIER METAR :
  • 191250Z 03005KT 350V080 5000 HZ NSC 15/10 Q1021 NOSIG

METARs EXPIRÉS :
  • 191220Z 06004KT 020V110 5000 FEW016 14/10 Q1021 NOSIG
  • 191150Z 04003KT 330V130 5000 FEW014 SCT016 14/10 Q1022 NOSIG
  • 191120Z 08004KT 040V130 5000 BKN014 14/10 Q1022 BECMG SCT014
  • 191050Z 07005KT 010V110 5000 BKN013 13/10 Q1022 BECMG SCT014
  • 191020Z 03005KT 360V110 4000 BR BKN012 12/09 Q1022 BECMG 5000

TAF TAF LSZH
Valide du 19 à 12h jusqu'au 20 à 18h UTC


191125Z 1912/2018 05006KT 5000 BKN013 TX19/1914Z TN05/2004Z TX18/2014Z
BECMG 1912/1913 7000 FEW014
BECMG 1918/1921 VRB03KT 7000 NSC
BECMG 1923/2002 4000 MIFG
BECMG 2002/2004 2000 BCFG BKN003
BECMG 2007/2009 4000 BR BKN010
BECMG 2009/2012 05007KT 7000 FEW015
ATIS : +41 43 816 2295 (DEP) +41 43 816 2294 (ARR)
Pas de NOTAMs connus pour ce terrain.



MET'MAP, la Météo Aéronautique d'un coup d'oeil ! - Copyright ORBIFLY Décembre 2007 - Disclaimer

ORBIFLY MET'MAP TEAM :

Programmation & Développement : Alexandra Zaïnal
Conception & Développement : Baudouin d'Aumeries
Co-Programmation & Développement : Marc-Olivier Méhu
Soutien technique & logistique : Manuel Goepfert

Contact : metmap@orbifly.com




SOURCES & CREDITS :

   NOAA